Terminal Aerodrome Forecast
Issued by NWS Charleston, WV

Current Version | Previous Version | Text Only | Print | Product List | Glossary Off
Versions: 1 2 3 4 5 6 7 8 9 10 11 12 13 14 15 16 17 18 19 20 21 22 23

000
FTUS41 KRLX 220858 AAA
TAFBKW
TAF AMD
KBKW 220858Z 2209/2306 VRB02KT P6SM FEW150
     FM221400 28006KT P6SM SCT050
     FM230200 VRB03KT P6SM SCT200=

USA.gov is the U.S. government's official web portal to all federal, state and local government web resources and services.